CCA1430 ZSPD-ZBTJ
Flight info
| Callsign | CCA1430 |
|---|---|
| Flight time | N/A |
| Altitude | 32100 |
| Route | PIKAS G330 PIMOL A593 DALIM W157 BEKDO/K0852S1010 W157 AVBOX |
| Aircraft | A321/M-SDE3FGHIRWY/LB1 |
Departure
| Time | 2026-04-30 14:02 |
|---|---|
| Airport | Shanghai Pudong International Airport (ZSPD) |
Arrival
| Time | N/A |
|---|---|
| Airport | Tianjin Binhai International Airport (ZBTJ) |
| Time | Latitude | Longitude | Altitude | Speed | Heading |
|---|---|---|---|---|---|
| 2026-04-30 13:41 | 31.14867 | 121.80730 | 23 ft | 0 kts | 72° |
| 2026-04-30 13:51 | 31.14863 | 121.80716 | 24 ft | 4 kts | 72° |
| 2026-04-30 13:52 | 31.14856 | 121.80689 | 24 ft | 2 kts | 72° |
| 2026-04-30 13:52 | 31.14852 | 121.80662 | 26 ft | 4 kts | 108° |
| 2026-04-30 13:52 | 31.14866 | 121.80639 | 26 ft | 4 kts | 150° |
| 2026-04-30 13:52 | 31.14887 | 121.80629 | 25 ft | 1 kts | 162° |
| 2026-04-30 13:53 | 31.14887 | 121.80628 | 25 ft | 1 kts | 162° |
| 2026-04-30 13:55 | 31.14885 | 121.80629 | 23 ft | 2 kts | 162° |
| 2026-04-30 13:55 | 31.14843 | 121.80645 | 23 ft | 11 kts | 162° |
| 2026-04-30 13:55 | 31.14749 | 121.80681 | 24 ft | 15 kts | 162° |
| 2026-04-30 13:55 | 31.14652 | 121.80717 | 23 ft | 14 kts | 162° |
| 2026-04-30 13:56 | 31.14610 | 121.80814 | 23 ft | 19 kts | 76° |
| 2026-04-30 13:56 | 31.14659 | 121.80987 | 23 ft | 25 kts | 72° |
| 2026-04-30 13:56 | 31.14722 | 121.81159 | 23 ft | 16 kts | 33° |
| 2026-04-30 13:56 | 31.14791 | 121.81154 | 23 ft | 12 kts | 6° |
| 2026-04-30 13:57 | 31.14847 | 121.81262 | 23 ft | 21 kts | 72° |
| 2026-04-30 13:57 | 31.14925 | 121.81320 | 24 ft | 11 kts | 332° |
| 2026-04-30 13:57 | 31.15009 | 121.81289 | 23 ft | 16 kts | 342° |
| 2026-04-30 13:57 | 31.15139 | 121.81240 | 23 ft | 22 kts | 342° |
| 2026-04-30 13:58 | 31.15284 | 121.81185 | 22 ft | 21 kts | 342° |
| 2026-04-30 13:58 | 31.15592 | 121.81069 | 22 ft | 24 kts | 342° |
| 2026-04-30 13:58 | 31.15736 | 121.81033 | 22 ft | 17 kts | 25° |
| 2026-04-30 13:59 | 31.15765 | 121.81093 | 22 ft | 0 kts | 73° |
| 2026-04-30 13:59 | 31.15765 | 121.81094 | 22 ft | 0 kts | 73° |
| 2026-04-30 14:00 | 31.15773 | 121.81125 | 23 ft | 9 kts | 72° |
| 2026-04-30 14:00 | 31.15716 | 121.81244 | 21 ft | 7 kts | 178° |
| 2026-04-30 14:00 | 31.15674 | 121.81264 | 23 ft | 6 kts | 158° |
| 2026-04-30 14:01 | 31.15636 | 121.81279 | 21 ft | 9 kts | 162° |
| 2026-04-30 14:01 | 31.15372 | 121.81379 | 21 ft | 75 kts | 162° |
| 2026-04-30 14:01 | 31.14670 | 121.81644 | 20 ft | 135 kts | 162° |
| 2026-04-30 14:01 | 31.13619 | 121.82040 | 27 ft | 180 kts | 162° |
| 2026-04-30 14:02 | 31.12379 | 121.82500 | 473 ft | 190 kts | 162° |
| 2026-04-30 14:02 | 31.11120 | 121.83004 | 1099 ft | 194 kts | 161° |
| 2026-04-30 14:02 | 31.09839 | 121.83542 | 1748 ft | 198 kts | 157° |
| 2026-04-30 14:02 | 31.09025 | 121.84040 | 2020 ft | 204 kts | 146° |
| 2026-04-30 14:03 | 31.07387 | 121.85386 | 2219 ft | 229 kts | 142° |
| 2026-04-30 14:03 | 31.06512 | 121.86141 | 2313 ft | 244 kts | 141° |
| 2026-04-30 14:03 | 31.05100 | 121.87367 | 2564 ft | 264 kts | 141° |
| 2026-04-30 14:03 | 31.03578 | 121.88563 | 3155 ft | 272 kts | 155° |
| 2026-04-30 14:04 | 31.01067 | 121.88676 | 4085 ft | 277 kts | 202° |
| 2026-04-30 14:04 | 30.99551 | 121.87355 | 4758 ft | 277 kts | 237° |
| 2026-04-30 14:04 | 30.98762 | 121.85313 | 5432 ft | 276 kts | 257° |
| 2026-04-30 14:04 | 30.98476 | 121.83848 | 5767 ft | 278 kts | 262° |
| 2026-04-30 14:05 | 30.98151 | 121.81638 | 5899 ft | 275 kts | 264° |
| 2026-04-30 14:05 | 30.97818 | 121.79455 | 5923 ft | 273 kts | 261° |
| 2026-04-30 14:05 | 30.97417 | 121.77300 | 5924 ft | 273 kts | 258° |
| 2026-04-30 14:05 | 30.96944 | 121.75153 | 5925 ft | 273 kts | 257° |
| 2026-04-30 14:06 | 30.96471 | 121.73030 | 5925 ft | 272 kts | 263° |
| 2026-04-30 14:06 | 30.96767 | 121.68691 | 6622 ft | 271 kts | 284° |
| 2026-04-30 14:07 | 30.97567 | 121.64387 | 7973 ft | 273 kts | 283° |
| 2026-04-30 14:07 | 30.97958 | 121.62221 | 8646 ft | 274 kts | 282° |
| 2026-04-30 14:07 | 30.98354 | 121.60040 | 9314 ft | 275 kts | 282° |
| 2026-04-30 14:08 | 30.99164 | 121.55612 | 10313 ft | 290 kts | 282° |
| 2026-04-30 14:08 | 30.99595 | 121.53240 | 10448 ft | 308 kts | 282° |
| 2026-04-30 14:08 | 31.00534 | 121.48080 | 10770 ft | 340 kts | 282° |
| 2026-04-30 14:09 | 31.01031 | 121.45364 | 11226 ft | 345 kts | 282° |
| 2026-04-30 14:09 | 31.01534 | 121.42619 | 11759 ft | 347 kts | 282° |
| 2026-04-30 14:09 | 31.02550 | 121.37072 | 12829 ft | 352 kts | 281° |
| 2026-04-30 14:10 | 31.03067 | 121.34268 | 13364 ft | 355 kts | 281° |
| 2026-04-30 14:10 | 31.03585 | 121.31464 | 13882 ft | 357 kts | 281° |
| 2026-04-30 14:10 | 31.04109 | 121.28619 | 14343 ft | 360 kts | 281° |
| 2026-04-30 14:10 | 31.04634 | 121.25759 | 14811 ft | 361 kts | 281° |
| 2026-04-30 14:11 | 31.05156 | 121.22898 | 15296 ft | 362 kts | 280° |
| 2026-04-30 14:11 | 31.05680 | 121.20022 | 15789 ft | 362 kts | 281° |
| 2026-04-30 14:11 | 31.06532 | 121.17285 | 16240 ft | 368 kts | 296° |
| 2026-04-30 14:11 | 31.08116 | 121.14875 | 16688 ft | 376 kts | 313° |
| 2026-04-30 14:12 | 31.10318 | 121.13126 | 17107 ft | 388 kts | 330° |
| 2026-04-30 14:12 | 31.12940 | 121.12265 | 17493 ft | 402 kts | 349° |
| 2026-04-30 14:12 | 31.15767 | 121.12071 | 17862 ft | 407 kts | 352° |
| 2026-04-30 14:12 | 31.18608 | 121.11918 | 18252 ft | 410 kts | 351° |
| 2026-04-30 14:13 | 31.21466 | 121.11768 | 18586 ft | 412 kts | 351° |
| 2026-04-30 14:13 | 31.24337 | 121.11613 | 18888 ft | 415 kts | 351° |
| 2026-04-30 14:13 | 31.27226 | 121.11455 | 19181 ft | 417 kts | 351° |
| 2026-04-30 14:13 | 31.30139 | 121.11293 | 19470 ft | 420 kts | 351° |
| 2026-04-30 14:14 | 31.33066 | 121.11125 | 19760 ft | 422 kts | 351° |
| 2026-04-30 14:14 | 31.35967 | 121.11051 | 20029 ft | 430 kts | 356° |
| 2026-04-30 14:14 | 31.38969 | 121.11251 | 20312 ft | 433 kts | 356° |
| 2026-04-30 14:14 | 31.41977 | 121.11401 | 20616 ft | 432 kts | 352° |
| 2026-04-30 14:15 | 31.44948 | 121.11059 | 20902 ft | 426 kts | 341° |
| 2026-04-30 14:15 | 31.47781 | 121.10142 | 21182 ft | 419 kts | 332° |
| 2026-04-30 14:15 | 31.50438 | 121.08793 | 21475 ft | 417 kts | 328° |
| 2026-04-30 14:15 | 31.53093 | 121.07380 | 21785 ft | 420 kts | 328° |
| 2026-04-30 14:16 | 31.55755 | 121.05962 | 22105 ft | 422 kts | 327° |
| 2026-04-30 14:16 | 31.58448 | 121.04525 | 22418 ft | 425 kts | 327° |
| 2026-04-30 14:16 | 31.61139 | 121.03091 | 22729 ft | 427 kts | 327° |
| 2026-04-30 14:16 | 31.63858 | 121.01643 | 23042 ft | 429 kts | 327° |
| 2026-04-30 14:17 | 31.66590 | 121.00187 | 23351 ft | 432 kts | 327° |
| 2026-04-30 14:17 | 31.69326 | 120.98728 | 23685 ft | 434 kts | 327° |
| 2026-04-30 14:17 | 31.72096 | 120.97250 | 23959 ft | 436 kts | 327° |
| 2026-04-30 14:17 | 31.74862 | 120.95776 | 24244 ft | 437 kts | 327° |
| 2026-04-30 14:18 | 31.77619 | 120.94308 | 24557 ft | 437 kts | 327° |
| 2026-04-30 14:18 | 31.80392 | 120.92830 | 24863 ft | 437 kts | 327° |
| 2026-04-30 14:18 | 31.85945 | 120.89856 | 25417 ft | 440 kts | 326° |
| 2026-04-30 14:19 | 31.91494 | 120.86880 | 25938 ft | 442 kts | 326° |
| 2026-04-30 14:19 | 31.94328 | 120.85360 | 26200 ft | 443 kts | 326° |
| 2026-04-30 14:19 | 31.97105 | 120.83869 | 26499 ft | 445 kts | 326° |
| 2026-04-30 14:20 | 31.99918 | 120.82356 | 26745 ft | 446 kts | 326° |
| 2026-04-30 14:20 | 32.02751 | 120.80832 | 26991 ft | 448 kts | 326° |
| 2026-04-30 14:20 | 32.08447 | 120.77775 | 27483 ft | 451 kts | 326° |
| 2026-04-30 14:21 | 32.11176 | 120.76014 | 27699 ft | 438 kts | 315° |
| 2026-04-30 14:21 | 32.13455 | 120.73722 | 27908 ft | 425 kts | 304° |
| 2026-04-30 14:21 | 32.16529 | 120.68040 | 28320 ft | 404 kts | 284° |
| 2026-04-30 14:22 | 32.17309 | 120.64898 | 28512 ft | 397 kts | 275° |
| 2026-04-30 14:22 | 32.17909 | 120.58508 | 28988 ft | 393 kts | 271° |
| 2026-04-30 14:23 | 32.18695 | 120.49122 | 29837 ft | 388 kts | 270° |
| 2026-04-30 14:23 | 32.19220 | 120.42797 | 30367 ft | 385 kts | 270° |
| 2026-04-30 14:24 | 32.19739 | 120.36510 | 30868 ft | 382 kts | 270° |
| 2026-04-30 14:24 | 32.19986 | 120.33450 | 31095 ft | 381 kts | 270° |
| 2026-04-30 14:25 | 32.20484 | 120.27246 | 31570 ft | 378 kts | 270° |
| 2026-04-30 14:25 | 32.20991 | 120.21095 | 32048 ft | 374 kts | 270° |
| 2026-04-30 14:26 | 32.21493 | 120.15008 | 32278 ft | 369 kts | 270° |
| 2026-04-30 14:26 | 32.21739 | 120.11999 | 32279 ft | 367 kts | 269° |
| 2026-04-30 14:27 | 32.22463 | 120.02992 | 32279 ft | 367 kts | 270° |
| 2026-04-30 14:27 | 32.22940 | 119.97010 | 32279 ft | 367 kts | 270° |
| 2026-04-30 14:28 | 32.23651 | 119.88008 | 32280 ft | 367 kts | 270° |
| 2026-04-30 14:28 | 32.24123 | 119.82009 | 32312 ft | 367 kts | 271° |
| 2026-04-30 14:29 | 32.25823 | 119.76238 | 32294 ft | 390 kts | 294° |
| 2026-04-30 14:29 | 32.29880 | 119.71633 | 32283 ft | 418 kts | 313° |
| 2026-04-30 14:31 | 32.41727 | 119.61568 | 32261 ft | 420 kts | 313° |
| 2026-04-30 14:31 | 32.48791 | 119.55498 | 32261 ft | 420 kts | 313° |
| 2026-04-30 14:32 | 32.55862 | 119.49372 | 32330 ft | 420 kts | 313° |
| 2026-04-30 14:33 | 32.60596 | 119.45276 | 32285 ft | 421 kts | 313° |
| 2026-04-30 14:33 | 32.67702 | 119.39133 | 32277 ft | 422 kts | 313° |
| 2026-04-30 14:34 | 32.72438 | 119.35025 | 32277 ft | 422 kts | 312° |
| 2026-04-30 14:34 | 32.77143 | 119.30927 | 32277 ft | 422 kts | 312° |
| 2026-04-30 14:35 | 32.84238 | 119.24745 | 32300 ft | 421 kts | 312° |
| 2026-04-30 14:36 | 32.88964 | 119.20627 | 32293 ft | 421 kts | 312° |
| 2026-04-30 14:36 | 32.93685 | 119.16509 | 32286 ft | 421 kts | 312° |
| 2026-04-30 14:37 | 32.98426 | 119.12400 | 32280 ft | 421 kts | 313° |
| 2026-04-30 14:37 | 33.03189 | 119.08313 | 32274 ft | 421 kts | 313° |
| 2026-04-30 14:38 | 33.07941 | 119.04228 | 32270 ft | 421 kts | 313° |
| 2026-04-30 14:38 | 33.12688 | 119.00132 | 32270 ft | 421 kts | 313° |
| 2026-04-30 14:39 | 33.17403 | 118.96045 | 32281 ft | 421 kts | 313° |
| 2026-04-30 14:39 | 33.22140 | 118.91934 | 32294 ft | 420 kts | 313° |
| 2026-04-30 14:40 | 33.29211 | 118.85750 | 32277 ft | 420 kts | 313° |
| 2026-04-30 14:40 | 33.33936 | 118.81628 | 32264 ft | 420 kts | 313° |
| 2026-04-30 14:41 | 33.38674 | 118.77538 | 32263 ft | 420 kts | 313° |
| 2026-04-30 14:41 | 33.43387 | 118.73460 | 32259 ft | 420 kts | 313° |
| 2026-04-30 14:42 | 33.48116 | 118.69349 | 32288 ft | 420 kts | 313° |
| 2026-04-30 14:42 | 33.52860 | 118.65232 | 32287 ft | 421 kts | 313° |
| 2026-04-30 14:43 | 33.57602 | 118.61133 | 32264 ft | 420 kts | 313° |
| 2026-04-30 14:43 | 33.62346 | 118.57028 | 32258 ft | 420 kts | 313° |
| 2026-04-30 14:44 | 33.67076 | 118.52905 | 32251 ft | 420 kts | 313° |
| 2026-04-30 14:44 | 33.71798 | 118.48775 | 32249 ft | 420 kts | 313° |
| 2026-04-30 14:45 | 33.76503 | 118.44674 | 32286 ft | 420 kts | 313° |
| 2026-04-30 14:45 | 33.81243 | 118.40543 | 32273 ft | 421 kts | 313° |
| 2026-04-30 14:46 | 33.85976 | 118.36397 | 32305 ft | 421 kts | 313° |
| 2026-04-30 14:46 | 33.90719 | 118.32244 | 32288 ft | 421 kts | 313° |
| 2026-04-30 14:47 | 33.95446 | 118.28094 | 32270 ft | 420 kts | 313° |
| 2026-04-30 14:47 | 34.00181 | 118.23940 | 32262 ft | 421 kts | 313° |
| 2026-04-30 14:48 | 34.04926 | 118.19812 | 32307 ft | 421 kts | 313° |
| 2026-04-30 14:48 | 34.09686 | 118.15674 | 32280 ft | 421 kts | 313° |
| 2026-04-30 14:49 | 34.14441 | 118.11533 | 32255 ft | 422 kts | 313° |
| 2026-04-30 14:49 | 34.19179 | 118.07408 | 32248 ft | 422 kts | 313° |
| 2026-04-30 14:50 | 34.26336 | 118.01186 | 32266 ft | 426 kts | 317° |
| 2026-04-30 14:51 | 34.31956 | 117.98340 | 32258 ft | 449 kts | 333° |
| 2026-04-30 14:51 | 34.34964 | 117.97283 | 32278 ft | 450 kts | 334° |
| 2026-04-30 14:52 | 34.43986 | 117.94093 | 32256 ft | 450 kts | 333° |
| 2026-04-30 14:52 | 34.53002 | 117.90849 | 32256 ft | 451 kts | 333° |
| 2026-04-30 14:53 | 34.62021 | 117.87612 | 32271 ft | 450 kts | 334° |
| 2026-04-30 14:54 | 34.74047 | 117.83287 | 32257 ft | 450 kts | 334° |
| 2026-04-30 14:55 | 34.83064 | 117.80037 | 32247 ft | 451 kts | 334° |
| 2026-04-30 14:56 | 34.95080 | 117.75642 | 32253 ft | 451 kts | 335° |
| 2026-04-30 14:57 | 35.04059 | 117.72349 | 32246 ft | 451 kts | 335° |
| 2026-04-30 14:58 | 35.16071 | 117.67946 | 32259 ft | 451 kts | 336° |
| 2026-04-30 14:58 | 35.25096 | 117.64640 | 32258 ft | 451 kts | 336° |
| 2026-04-30 15:00 | 35.40096 | 117.59109 | 32258 ft | 449 kts | 337° |
| 2026-04-30 15:01 | 35.52028 | 117.54694 | 32247 ft | 449 kts | 337° |
| 2026-04-30 15:01 | 35.60996 | 117.51365 | 32239 ft | 449 kts | 337° |
| 2026-04-30 15:02 | 35.66966 | 117.49139 | 32234 ft | 448 kts | 337° |
| 2026-04-30 15:03 | 35.80878 | 117.43951 | 32249 ft | 447 kts | 338° |
| 2026-04-30 15:04 | 35.95709 | 117.38399 | 32249 ft | 445 kts | 339° |
| 2026-04-30 15:06 | 36.10528 | 117.32914 | 32252 ft | 444 kts | 340° |
| 2026-04-30 15:07 | 36.22341 | 117.28540 | 32241 ft | 443 kts | 340° |
| 2026-04-30 15:08 | 36.34104 | 117.24162 | 32245 ft | 442 kts | 341° |
| 2026-04-30 15:09 | 36.48528 | 117.17806 | 32225 ft | 439 kts | 335° |
| 2026-04-30 15:10 | 36.59791 | 117.11943 | 32227 ft | 437 kts | 336° |
| 2026-04-30 15:11 | 36.76558 | 117.03195 | 32196 ft | 436 kts | 336° |
| 2026-04-30 15:13 | 36.90527 | 116.95846 | 32190 ft | 435 kts | 338° |
| 2026-04-30 15:14 | 37.10045 | 116.85571 | 32169 ft | 434 kts | 339° |
| 2026-04-30 15:17 | 37.35376 | 116.74221 | 32168 ft | 428 kts | 345° |
| 2026-04-30 15:19 | 37.58128 | 116.65552 | 32153 ft | 426 kts | 345° |